createdAt,value
2022-12-18T00:00:10.180Z,116.54902
2022-12-18T00:05:11.904Z,114.63712
2022-12-18T00:10:15.500Z,112.30601
2022-12-18T00:15:17.263Z,106.10526
2022-12-18T00:20:18.867Z,108.70588
2022-12-18T00:25:20.477Z,104.83551
2022-12-18T00:30:22.170Z,101.94872
2022-12-18T00:35:24.337Z,104
2022-12-18T00:40:25.907Z,105.67979
2022-12-18T00:45:27.580Z,108.26667
2022-12-18T00:50:29.435Z,110.48649
2022-12-18T00:55:31.032Z,117.03371
2022-12-18T01:00:32.697Z,117.03371
2022-12-18T01:05:34.515Z,124.64516
2022-12-18T01:10:36.436Z,122.03468
2022-12-18T01:15:37.987Z,125.17647
2022-12-18T01:20:39.606Z,131.80488
2022-12-18T01:25:41.354Z,128.43114
2022-12-18T01:30:42.963Z,129.54217
2022-12-18T01:35:45.105Z,130.66667
2022-12-18T01:40:46.807Z,131.23404
2022-12-18T01:45:48.412Z,128.43114
2022-12-18T01:50:50.070Z,130.66667
2022-12-18T01:55:51.604Z,131.23404
2022-12-18T02:00:53.204Z,125.71091
2022-12-18T02:05:55.152Z,127.8806
2022-12-18T02:10:57.046Z,127.8806
2022-12-18T02:15:58.967Z,128.98498
2022-12-18T02:21:00.773Z,124.11696
2022-12-18T02:26:02.306Z,117.52113
2022-12-18T02:31:04.161Z,114.63712
2022-12-18T02:36:06.007Z,111.3913
2022-12-18T02:41:07.575Z,112.76712
2022-12-18T02:46:09.250Z,112.76712
2022-12-18T02:51:10.801Z,108.70588
2022-12-18T02:56:12.520Z,109.5914
2022-12-18T03:01:14.202Z,118.0113
2022-12-18T03:06:16.194Z,114.63712
2022-12-18T03:11:17.749Z,117.03371
2022-12-18T03:16:19.341Z,114.16575
2022-12-18T03:21:20.892Z,117.03371
2022-12-18T03:26:22.524Z,120.5043
2022-12-18T03:31:24.677Z,120
2022-12-18T03:36:26.894Z,121.01149
2022-12-18T03:41:28.939Z,123.59184
2022-12-18T03:46:30.979Z,124.11696
2022-12-18T03:51:32.983Z,125.71091
2022-12-18T03:56:34.862Z,125.71091
2022-12-18T04:01:37.176Z,126.78932
2022-12-18T04:06:39.524Z,130.66667
2022-12-18T04:11:41.564Z,128.98498
2022-12-18T04:16:43.412Z,135.30435
2022-12-18T04:21:45.553Z,137.71069
2022-12-18T04:26:47.324Z,135.90031
2022-12-18T04:31:49.102Z,127.8806
2022-12-18T04:36:51.298Z,127.8806
2022-12-18T04:41:53.092Z,123.59184
2022-12-18T04:46:54.870Z,134.12346
2022-12-18T04:51:57.620Z,140.17834
2022-12-18T04:56:59.641Z,138.93671
2022-12-18T05:02:01.441Z,152.10811
2022-12-18T05:07:03.430Z,164
2022-12-18T05:12:05.291Z,157.88889
2022-12-18T05:17:06.841Z,165.58273
2022-12-18T05:22:08.727Z,159.38462
2022-12-18T05:27:10.313Z,160.14035
2022-12-18T05:32:11.836Z,182.75969
2022-12-18T05:37:13.726Z,179.1145
2022-12-18T05:42:15.422Z,198.54545
2022-12-18T05:47:17.105Z,182.75969
2022-12-18T05:52:19.029Z,200.66667
2022-12-18T05:57:21.065Z,211.82609
2022-12-18T06:02:23.429Z,185.56863
2022-12-18T06:07:25.637Z,191.38956
2022-12-18T06:12:27.626Z,179.1145
2022-12-18T06:17:29.632Z,195.42857
2022-12-18T06:22:31.560Z,168.81752
2022-12-18T06:27:33.462Z,164
2022-12-18T06:32:35.367Z,185.56863
2022-12-18T06:37:37.475Z,175.57895
2022-12-18T06:42:39.289Z,168.81752
2022-12-18T06:47:41.248Z,142.07074
2022-12-18T06:52:43.124Z,158.63415
2022-12-18T06:57:45.014Z,157.88889
2022-12-18T07:02:47.047Z,144
2022-12-18T07:07:49.201Z,169.64103
2022-12-18T07:12:51.033Z,170.47059
2022-12-18T07:17:52.907Z,183.68872
2022-12-18T07:22:56.345Z,168.81752
2022-12-18T07:27:58.594Z,210.66667
2022-12-18T07:33:00.367Z,219
2022-12-18T07:38:02.119Z,157.88889
2022-12-18T07:43:03.845Z,196.45902
2022-12-18T07:48:05.455Z,167.18841
2022-12-18T07:53:07.275Z,194.4065
2022-12-18T07:58:09.079Z,159.38462
2022-12-18T08:03:10.680Z,185.56863
2022-12-18T08:08:14.080Z,212.99563
2022-12-18T08:13:15.772Z,227.87097
2022-12-18T08:18:17.521Z,176.45283
2022-12-18T08:23:19.127Z,205.01695
2022-12-18T08:28:20.775Z,248.9505
2022-12-18T08:33:22.610Z,256.69036
2022-12-18T08:38:24.731Z,245.96078
2022-12-18T08:43:26.510Z,248.9505
2022-12-18T08:48:28.349Z,275.1828
2022-12-18T08:53:35.346Z,250.46766
2022-12-18T08:58:37.539Z,344
2022-12-18T09:03:39.761Z,300.06936
2022-12-18T09:08:42.341Z,344
2022-12-18T09:13:44.401Z,294
2022-12-18T09:18:45.889Z,331.42138
2022-12-18T09:23:47.367Z,256.69036
2022-12-18T09:28:49.206Z,155.68385
2022-12-18T09:33:50.700Z,75.06383
2022-12-18T09:38:52.532Z,72.33333
2022-12-18T09:43:54.040Z,48.05405
2022-12-18T09:48:55.502Z,76.75862
2022-12-18T09:53:57.271Z,88.60094
2022-12-18T09:58:58.797Z,174.71161
2022-12-18T10:04:00.370Z,217.77778
2022-12-18T10:09:02.455Z,266.51309
2022-12-18T10:14:03.950Z,200.66667
2022-12-18T10:19:05.532Z,165.58273
2022-12-18T10:24:07.194Z,165.58273
2022-12-18T10:29:08.685Z,225.27854
2022-12-18T10:34:10.134Z,160.90141
2022-12-18T10:39:12.228Z,166.38267
2022-12-18T10:44:13.943Z,268.21053
2022-12-18T10:49:15.600Z,201.74059
2022-12-18T10:54:17.145Z,248.9505
2022-12-18T10:59:18.735Z,259.89744
2022-12-18T11:04:20.154Z,261.52577
2022-12-18T11:09:22.339Z,178.22053
2022-12-18T11:14:23.980Z,280.61202
2022-12-18T11:19:25.873Z,160.14035
2022-12-18T11:24:27.440Z,145.30719
2022-12-18T11:29:29.240Z,107.39523
2022-12-18T11:34:31.300Z,67.2
2022-12-18T11:39:33.521Z,55.19134
2022-12-18T11:44:34.963Z,68.94929
2022-12-18T11:49:36.768Z,120.5043
2022-12-18T11:54:38.871Z,141.4359
2022-12-18T11:59:40.531Z,202.82353
2022-12-18T12:04:42.163Z,199.60166
2022-12-18T12:09:44.087Z,195.42857
2022-12-18T12:14:45.777Z,220.23318
2022-12-18T12:19:47.594Z,292.0226
2022-12-18T12:24:49.232Z,255.11111
2022-12-18T12:29:51.010Z,247.44828
2022-12-18T12:34:57.868Z,290.06742
2022-12-18T12:40:15.280Z,310.66667
2022-12-18T12:45:29.158Z,252
2022-12-18T12:50:30.924Z,255.11111
2022-12-18T12:55:33.460Z,294
2022-12-18T13:00:35.357Z,290.06742
2022-12-18T13:05:37.323Z,410.66667
2022-12-18T13:10:39.212Z,300.06936
2022-12-18T13:15:41.639Z,290.06742
2022-12-18T13:20:45.625Z,255.11111
2022-12-18T13:25:50.759Z,298.02299
2022-12-18T13:30:53.767Z,248.9505
2022-12-18T13:35:58.371Z,261.52577
2022-12-18T13:41:00.828Z,214.17544
2022-12-18T13:46:02.643Z,229.18519
2022-12-18T13:51:04.551Z,217.77778
2022-12-18T13:56:06.339Z,205.01695
2022-12-18T14:01:09.233Z,207.24786
2022-12-18T14:06:11.114Z,244.4878
2022-12-18T14:11:12.862Z,286.22222
2022-12-18T14:16:15.797Z,278.78261
2022-12-18T14:21:17.621Z,207.24786
2022-12-18T14:26:19.692Z,203.91561
2022-12-18T14:31:21.757Z,208.37768
2022-12-18T14:36:23.488Z,185.56863
2022-12-18T14:41:25.449Z,185.56863
2022-12-18T14:46:27.023Z,197.49794
2022-12-18T14:51:29.202Z,205.01695
2022-12-18T14:56:31.148Z,184.625
2022-12-18T15:01:33.208Z,184.625
2022-12-18T15:06:35.315Z,185.56863
2022-12-18T15:11:37.327Z,194.4065
2022-12-18T15:16:43.385Z,189.41833
2022-12-18T15:21:48.180Z,189.41833
2022-12-18T15:26:49.980Z,202.82353
2022-12-18T15:31:51.977Z,201.74059
2022-12-18T15:36:53.912Z,191.38956
2022-12-18T15:41:56.075Z,188.44444
2022-12-18T15:46:57.800Z,190.4
2022-12-18T15:51:59.720Z,202.82353
2022-12-18T15:57:01.407Z,189.41833
2022-12-18T16:02:03.328Z,182.75969
2022-12-18T16:07:14.854Z,183.68872
2022-12-18T16:12:17.051Z,173.85075
2022-12-18T16:17:18.496Z,177.33333
2022-12-18T16:22:20.292Z,171.30627
2022-12-18T16:27:22.165Z,170.47059
2022-12-18T16:32:23.723Z,152.81356
2022-12-18T16:37:26.849Z,168
2022-12-18T16:42:29.267Z,167.18841
2022-12-18T16:47:30.951Z,178.22053
2022-12-18T16:52:32.762Z,174.71161
2022-12-18T16:57:34.711Z,151.40741
2022-12-18T17:02:36.433Z,157.14879
2022-12-18T17:07:38.206Z,153.52381
2022-12-18T17:12:40.411Z,153.52381
2022-12-18T17:17:42.184Z,158.63415
2022-12-18T17:22:43.986Z,154.9589
2022-12-18T17:27:46.130Z,149.33333
2022-12-18T17:32:47.910Z,145.30719
2022-12-18T17:37:49.539Z,131.23404
2022-12-18T17:42:51.518Z,133.53846
2022-12-18T17:47:59.644Z,124.11696
2022-12-18T17:53:01.372Z,120
2022-12-18T17:58:02.935Z,128.98498
2022-12-18T18:03:04.652Z,134.71207
2022-12-18T18:08:06.465Z,138.93671
2022-12-18T18:13:08.352Z,134.71207
2022-12-18T18:18:09.849Z,143.35275
2022-12-18T18:23:13.008Z,142.07074
2022-12-18T18:28:14.787Z,131.23404
2022-12-18T18:33:16.621Z,134.12346
2022-12-18T18:38:18.105Z,136.5
2022-12-18T18:43:20.559Z,132.3792
2022-12-18T18:48:22.501Z,125.71091
2022-12-18T18:53:24.889Z,128.43114
2022-12-18T18:58:26.830Z,113.23077
2022-12-18T19:03:28.713Z,109.14745
2022-12-18T19:08:30.210Z,101.94872
2022-12-18T19:13:32.308Z,94.61125
2022-12-18T19:18:34.233Z,90.66667
2022-12-18T19:23:35.792Z,89.97156
2022-12-18T19:28:37.610Z,98.38596
2022-12-18T19:33:43.780Z,106.96296
2022-12-18T19:38:45.823Z,107.82979
2022-12-18T19:43:47.959Z,109.14745
2022-12-18T19:48:50.066Z,108.26667
2022-12-18T19:53:55.118Z,104.83551
2022-12-18T19:59:00.149Z,101.54476
2022-12-18T20:04:02.346Z,100.743
2022-12-18T20:09:05.113Z,104.83551
2022-12-18T20:14:07.155Z,107.82979
2022-12-18T20:19:08.734Z,106.96296
2022-12-18T20:24:10.592Z,106.53298
2022-12-18T20:29:12.216Z,106.10526
2022-12-18T20:34:13.717Z,105.67979
2022-12-18T20:39:15.620Z,107.39523
2022-12-18T20:44:22.283Z,104.83551
2022-12-18T20:49:24.948Z,102.35476
2022-12-18T20:54:26.670Z,103.58549
2022-12-18T20:59:28.424Z,102.35476
2022-12-18T21:09:40.402Z,114.16575
2022-12-18T21:14:42.231Z,111.84741
2022-12-18T21:19:43.688Z,111.84741
2022-12-18T21:24:45.651Z,110.93767
2022-12-18T21:29:47.649Z,112.30601
2022-12-18T21:34:49.560Z,114.16575
2022-12-18T21:39:51.259Z,113.23077
2022-12-18T21:44:53.322Z,119.49858
2022-12-18T21:49:55.063Z,115.58774
2022-12-18T21:54:56.801Z,121.01149
2022-12-18T21:59:58.556Z,123.06977
2022-12-18T22:05:00.260Z,122.55072
2022-12-18T22:10:02.404Z,127.8806
2022-12-18T22:15:04.663Z,125.71091
2022-12-18T22:20:06.185Z,135.90031
2022-12-18T22:25:07.631Z,135.90031
2022-12-18T22:30:09.412Z,133.53846
2022-12-18T22:35:15.853Z,142.70968
2022-12-18T22:40:25.383Z,142.70968
2022-12-18T22:45:27.988Z,142.70968
2022-12-18T22:50:29.629Z,144
2022-12-18T22:55:31.429Z,144.65147
2022-12-18T23:00:33.352Z,140.17834
2022-12-18T23:05:35.074Z,142.70968
2022-12-18T23:10:36.724Z,139.55556
2022-12-18T23:15:38.949Z,142.70968
2022-12-18T23:20:41.014Z,138.93671
2022-12-18T23:25:43.349Z,133.53846
2022-12-18T23:30:45.076Z,135.90031
2022-12-18T23:35:46.687Z,134.71207
2022-12-18T23:40:48.169Z,133.53846
2022-12-18T23:45:55.473Z,132.3792
2022-12-18T23:50:57.587Z,135.30435
2022-12-18T23:55:59.408Z,132.95706
